Time;durP1;ratioP1;P1;durP2;ratioP2;P2;SDS_P1;SDS_P2;PMS_P1;PMS_P2;Temp;Humidity;BMP_temperature;BMP_pressure;BME280_temperature;BME280_humidity;BME280_pressure;Samples;Min_cycle;Max_cycle;Signal;HPM_P1;HPM_P2
2021/12/04 00:01:18;;;;;;;7.28;3.70;;;20.30;51.10;;;;;;4921911;28;20031;-78
2021/12/04 00:03:44;;;;;;;8.45;3.42;;;20.20;50.70;;;;;;4920998;29;20047;-78
2021/12/04 00:06:17;;;;;;;7.18;3.53;;;20.20;51.00;;;;;;4920764;29;20103;-78
2021/12/04 00:08:45;;;;;;;6.15;3.50;;;20.20;51.00;;;;;;4937498;29;20031;-78
2021/12/04 00:11:11;;;;;;;6.05;3.15;;;20.20;50.80;;;;;;4937328;29;20133;-78
2021/12/04 00:13:37;;;;;;;5.75;3.10;;;20.20;50.80;;;;;;4921497;29;20106;-78
2021/12/04 00:16:03;;;;;;;6.72;3.22;;;20.20;51.00;;;;;;4937117;29;20031;-78
2021/12/04 00:18:29;;;;;;;7.35;3.60;;;20.20;50.90;;;;;;4921775;29;20038;-78
2021/12/04 00:20:55;;;;;;;5.82;3.40;;;20.20;50.80;;;;;;4921829;29;20039;-78
2021/12/04 00:23:20;;;;;;;5.10;3.17;;;20.20;51.00;;;;;;4921540;29;20031;-78
2021/12/04 00:25:46;;;;;;;7.28;3.50;;;20.20;51.00;;;;;;4921050;29;20035;-78
2021/12/04 00:28:12;;;;;;;5.00;2.90;;;20.20;51.00;;;;;;4921618;29;20042;-77
2021/12/04 00:30:38;;;;;;;6.32;3.35;;;20.20;50.80;;;;;;4954114;29;20035;-77
2021/12/04 00:33:10;;;;;;;5.57;3.38;;;20.20;51.00;;;;;;4921922;29;20090;-78
2021/12/04 00:35:44;;;;;;;6.82;3.20;;;20.20;51.60;;;;;;4921451;29;20035;-78
2021/12/04 00:49:18;;;;;;;5.43;2.95;;;20.20;50.90;;;;;;4936872;29;20502;-78
2021/12/04 00:51:50;;;;;;;5.65;3.00;;;20.20;51.00;;;;;;4921014;29;20035;-78
2021/12/04 00:54:17;;;;;;;5.18;3.00;;;20.10;50.90;;;;;;4920977;29;20031;-78
2021/12/04 00:56:44;;;;;;;5.55;3.05;;;20.20;50.90;;;;;;4921112;29;20039;-78
2021/12/04 00:59:11;;;;;;;5.55;3.28;;;20.20;51.00;;;;;;4936629;29;20031;-78
2021/12/04 01:01:39;;;;;;;5.43;2.90;;;20.20;50.80;;;;;;4921118;29;20039;-78
2021/12/04 01:04:08;;;;;;;6.30;3.38;;;20.20;50.80;;;;;;4936478;29;20042;-78
2021/12/04 01:06:33;;;;;;;5.30;3.25;;;20.20;50.60;;;;;;4920349;29;20491;-78
2021/12/04 01:08:59;;;;;;;4.80;3.10;;;20.20;50.80;;;;;;4936722;29;20133;-78
2021/12/04 01:11:25;;;;;;;5.07;2.97;;;20.20;50.80;;;;;;4920812;29;20089;-78
2021/12/04 01:13:51;;;;;;;5.93;3.15;;;20.20;50.70;;;;;;4922657;29;20506;-77
2021/12/04 01:16:17;;;;;;;4.80;3.20;;;20.20;50.70;;;;;;4924333;29;20039;-78
2021/12/04 01:18:44;;;;;;;6.97;3.20;;;20.20;50.90;;;;;;4924606;29;20078;-78
2021/12/04 01:21:10;;;;;;;5.18;2.88;;;20.20;50.90;;;;;;4924721;29;20051;-77
2021/12/04 01:23:37;;;;;;;4.53;3.03;;;20.20;50.80;;;;;;4957484;28;20035;-78
2021/12/04 01:26:03;;;;;;;5.53;3.17;;;20.20;50.80;;;;;;4924719;29;20439;-77
2021/12/04 01:28:31;;;;;;;5.95;3.00;;;20.20;50.90;;;;;;4925135;29;20038;-78
2021/12/04 01:30:56;;;;;;;5.00;2.97;;;20.10;50.80;;;;;;4925069;29;20041;-78
2021/12/04 01:33:22;;;;;;;4.32;2.70;;;20.20;50.90;;;;;;4925126;29;20567;-77
2021/12/04 01:35:48;;;;;;;6.43;2.75;;;20.20;50.90;;;;;;4924456;29;20054;-77
2021/12/04 01:38:14;;;;;;;6.65;3.20;;;20.20;50.90;;;;;;4924655;29;20038;-78
2021/12/04 01:40:40;;;;;;;5.13;3.08;;;20.20;50.80;;;;;;4924910;29;20476;-78
2021/12/04 01:43:11;;;;;;;4.30;2.78;;;20.10;50.90;;;;;;4925231;29;20419;-78
2021/12/04 01:45:37;;;;;;;5.13;2.88;;;20.20;50.90;;;;;;4924226;29;20204;-78
2021/12/04 01:48:03;;;;;;;5.13;2.65;;;20.20;50.80;;;;;;4940137;29;20154;-78
2021/12/04 01:50:31;;;;;;;5.28;2.55;;;20.20;50.90;;;;;;4924524;29;20432;-78
2021/12/04 01:52:59;;;;;;;5.35;2.72;;;20.10;50.70;;;;;;4940447;29;20023;-78
2021/12/04 01:55:31;;;;;;;4.72;3.00;;;20.10;50.90;;;;;;4923634;29;20391;-78
2021/12/04 01:58:00;;;;;;;4.50;2.67;;;20.20;50.90;;;;;;4923936;29;20063;-78
2021/12/04 02:00:30;;;;;;;4.95;2.83;;;20.20;50.80;;;;;;4924211;29;20041;-78
2021/12/04 02:02:57;;;;;;;4.05;2.53;;;20.20;51.40;;;;;;4924110;29;20408;-77
2021/12/04 02:05:23;;;;;;;4.03;2.67;;;20.10;50.70;;;;;;4940035;29;20059;-77
2021/12/04 02:07:50;;;;;;;5.55;3.00;;;20.10;50.70;;;;;;4924000;29;20038;-78
2021/12/04 02:10:16;;;;;;;4.75;2.65;;;20.10;50.70;;;;;;4923824;29;20035;-77
2021/12/04 02:12:42;;;;;;;4.20;2.78;;;20.20;50.80;;;;;;4923705;29;20035;-78
2021/12/04 02:15:13;;;;;;;5.25;2.85;;;20.20;50.80;;;;;;4939286;29;20118;-78
2021/12/04 02:17:40;;;;;;;5.60;2.75;;;20.10;50.80;;;;;;4939933;29;20102;-78
2021/12/04 02:20:21;;;;;;;4.50;2.90;;;20.10;50.70;;;;;;4939638;29;20110;-78
2021/12/04 02:22:48;;;;;;;4.80;2.80;;;20.10;50.70;;;;;;4924296;29;20035;-77
2021/12/04 02:25:17;;;;;;;4.88;2.70;;;20.10;50.70;;;;;;4922666;29;20035;-78
2021/12/04 02:27:45;;;;;;;4.93;2.70;;;20.20;50.90;;;;;;4923949;29;20032;-77
2021/12/04 02:30:14;;;;;;;4.15;2.42;;;20.20;50.80;;;;;;4939799;29;20027;-78
2021/12/04 02:32:41;;;;;;;5.45;2.85;;;20.20;50.70;;;;;;4924029;29;20130;-78
2021/12/04 02:35:08;;;;;;;5.72;2.65;;;20.10;50.70;;;;;;4923603;29;20086;-78
2021/12/04 02:37:36;;;;;;;4.57;2.28;;;20.20;50.80;;;;;;4940072;29;20054;-78
2021/12/04 02:40:04;;;;;;;4.60;2.60;;;20.10;50.60;;;;;;4923992;29;20035;-78
2021/12/04 02:42:31;;;;;;;5.18;2.80;;;20.20;50.80;;;;;;4923735;29;20120;-75
2021/12/04 02:44:59;;;;;;;4.63;2.70;;;20.20;50.70;;;;;;4923222;29;20039;-77
2021/12/04 02:47:27;;;;;;;5.03;2.42;;;20.10;50.70;;;;;;4923854;29;20036;-78
2021/12/04 02:49:54;;;;;;;4.07;2.63;;;20.10;50.60;;;;;;4924441;29;20035;-78
2021/12/04 02:52:20;;;;;;;4.60;2.70;;;20.20;50.80;;;;;;4923406;29;20042;-78
2021/12/04 02:54:46;;;;;;;4.35;2.38;;;20.10;50.70;;;;;;4922919;29;20089;-78
2021/12/04 02:57:15;;;;;;;4.03;2.35;;;20.10;50.70;;;;;;4922944;29;20042;-77
2021/12/04 02:59:41;;;;;;;4.25;2.47;;;20.10;50.70;;;;;;4922846;29;20038;-78
2021/12/04 03:02:22;;;;;;;3.78;2.58;;;20.10;50.80;;;;;;4938297;29;20039;-78
2021/12/04 03:04:54;;;;;;;5.57;2.42;;;20.10;50.60;;;;;;4937802;28;20548;-77
2021/12/04 03:07:21;;;;;;;5.18;2.80;;;20.10;50.70;;;;;;4922153;29;20142;-77
2021/12/04 03:09:47;;;;;;;3.80;2.40;;;20.10;50.70;;;;;;4922023;29;20047;-79
2021/12/04 03:12:15;;;;;;;5.07;2.63;;;20.10;50.70;;;;;;4937771;29;20130;-78
2021/12/04 03:14:40;;;;;;;4.18;2.25;;;20.10;50.80;;;;;;4921612;29;20031;-78
2021/12/04 03:17:07;;;;;;;4.25;2.50;;;20.10;50.70;;;;;;4922274;29;20038;-77
2021/12/04 03:19:34;;;;;;;4.10;2.50;;;20.10;50.70;;;;;;4937553;29;20058;-78
2021/12/04 03:22:02;;;;;;;3.95;2.50;;;20.10;50.70;;;;;;4923761;29;20046;-77
2021/12/04 03:24:29;;;;;;;3.28;2.22;;;20.10;50.80;;;;;;4923308;29;20035;-78
2021/12/04 03:26:56;;;;;;;4.13;2.40;;;20.10;50.70;;;;;;4923819;29;20031;-77
2021/12/04 03:29:25;;;;;;;4.60;2.58;;;20.10;50.70;;;;;;4922783;29;20039;-78
2021/12/04 03:43:02;;;;;;;5.03;2.50;;;20.10;50.80;;;;;;4921677;29;20057;-78
2021/12/04 03:45:28;;;;;;;3.53;2.20;;;20.10;50.70;;;;;;4936948;29;20035;-78
2021/12/04 03:48:03;;;;;;;3.55;2.25;;;20.10;50.60;;;;;;4937362;29;20417;-78
2021/12/04 03:50:28;;;;;;;3.80;2.58;;;20.10;50.60;;;;;;4921627;29;20114;-79
2021/12/04 03:52:54;;;;;;;3.65;2.28;;;20.10;50.60;;;;;;4937233;29;20051;-79
2021/12/04 03:55:20;;;;;;;3.95;2.17;;;20.10;50.60;;;;;;4920976;29;20032;-78
2021/12/04 03:57:45;;;;;;;3.72;2.30;;;20.10;50.60;;;;;;4937095;29;20054;-78
2021/12/04 04:00:15;;;;;;;3.90;2.20;;;20.10;50.50;;;;;;4954107;29;20527;-78
2021/12/04 04:02:41;;;;;;;;;;;20.10;50.50;;;;;;4937550;28;20381;-78
2021/12/04 04:05:08;;;;;;;3.10;2.35;;;20.10;50.50;;;;;;4936648;29;19925;-78
2021/12/04 04:07:33;;;;;;;3.67;2.22;;;20.10;50.50;;;;;;4954078;29;20028;-78
2021/12/04 04:10:00;;;;;;;3.30;2.30;;;20.10;50.60;;;;;;4921291;29;20476;-78
2021/12/04 04:12:25;;;;;;;3.75;2.20;;;20.10;50.50;;;;;;4937139;29;20027;-77
2021/12/04 04:14:51;;;;;;;3.47;1.90;;;20.10;50.60;;;;;;4936448;29;20023;-78
2021/12/04 04:17:17;;;;;;;4.10;2.20;;;20.10;50.60;;;;;;4921358;29;20031;-78
2021/12/04 04:19:42;;;;;;;3.65;2.45;;;20.10;50.50;;;;;;4921134;29;20425;-78
2021/12/04 04:22:08;;;;;;;3.65;2.17;;;20.10;50.60;;;;;;4936795;29;20046;-78
2021/12/04 04:24:34;;;;;;;3.33;2.13;;;20.10;50.70;;;;;;4920537;29;20031;-78
2021/12/04 04:27:00;;;;;;;4.13;2.10;;;20.10;50.70;;;;;;4920732;29;20035;-78
2021/12/04 04:29:27;;;;;;;3.03;1.98;;;20.10;50.70;;;;;;4921171;29;20031;-77
2021/12/04 04:31:54;;;;;;;3.75;2.20;;;20.10;50.70;;;;;;4954116;29;20563;-78
2021/12/04 04:34:37;;;;;;;2.95;2.10;;;20.10;50.70;;;;;;4921115;29;20023;-78
2021/12/04 04:37:55;;;;;;;3.70;2.20;;;20.10;50.70;;;;;;4920906;29;20027;-78
2021/12/04 04:59:17;;;;;;;3.05;2.00;;;20.10;50.60;;;;;;4936453;29;20042;-78
2021/12/04 05:12:59;;;;;;;3.13;2.10;;;20.10;50.60;;;;;;4936360;29;20039;-78
2021/12/04 05:21:04;;;;;;;3.40;2.10;;;20.10;50.60;;;;;;4935812;29;20054;-78
2021/12/04 05:23:32;;;;;;;3.25;1.95;;;20.10;50.60;;;;;;4936142;29;20031;-78
2021/12/04 05:25:58;;;;;;;3.13;2.00;;;20.10;50.60;;;;;;4919889;29;20129;-78
2021/12/04 05:28:24;;;;;;;3.78;1.95;;;20.00;50.40;;;;;;4920573;29;20126;-78
2021/12/04 05:30:50;;;;;;;3.63;2.22;;;20.10;50.60;;;;;;4936247;29;20108;-78
2021/12/04 05:33:16;;;;;;;4.00;2.20;;;20.00;50.50;;;;;;4935863;29;20024;-78
2021/12/04 05:35:42;;;;;;;3.45;2.03;;;20.10;50.50;;;;;;4935896;29;20345;-78
2021/12/04 05:38:08;;;;;;;3.72;2.13;;;20.00;50.50;;;;;;4920393;29;20396;-78
2021/12/04 05:40:33;;;;;;;3.13;1.83;;;20.00;50.40;;;;;;4920209;29;20031;-78
2021/12/04 05:43:03;;;;;;;3.53;2.10;;;20.10;50.60;;;;;;4920305;29;20042;-78
2021/12/04 05:45:32;;;;;;;2.67;2.15;;;20.00;50.60;;;;;;4919832;29;20023;-78
2021/12/04 05:51:16;;;;;;;4.00;2.10;;;20.00;50.50;;;;;;4924818;29;20043;-78
2021/12/04 05:56:17;;;;;;;4.45;2.03;;;20.10;50.60;;;;;;4919738;29;20510;-78
2021/12/04 05:58:43;;;;;;;2.42;1.80;;;20.10;50.60;;;;;;4935849;29;20027;-78
2021/12/04 06:01:09;;;;;;;3.45;1.90;;;20.10;50.50;;;;;;4922146;29;20173;-78
2021/12/04 06:03:35;;;;;;;3.72;2.00;;;20.00;50.50;;;;;;4939067;29;20106;-78
2021/12/04 06:06:03;;;;;;;3.15;1.67;;;20.00;50.50;;;;;;4939150;29;20035;-78
2021/12/04 06:08:30;;;;;;;3.15;1.92;;;20.00;50.60;;;;;;4939508;29;20039;-77
2021/12/04 06:10:57;;;;;;;2.60;2.00;;;20.00;50.50;;;;;;4937711;23;20026;-76
2021/12/04 06:13:23;;;;;;;3.33;2.20;;;20.00;50.50;;;;;;4969353;28;20117;-76
2021/12/04 06:15:49;;;;;;;3.72;2.03;;;20.00;50.40;;;;;;4943937;28;20113;-76
2021/12/04 06:18:15;;;;;;;2.38;1.90;;;20.00;50.60;;;;;;4994461;28;20023;-76
2021/12/04 06:23:27;;;;;;;3.80;1.60;;;20.00;50.50;;;;;;4974537;28;20027;-76
2021/12/04 06:25:53;;;;;;;2.63;1.67;;;20.00;50.50;;;;;;4957484;28;20035;-76
2021/12/04 06:28:20;;;;;;;3.58;2.28;;;20.00;50.60;;;;;;4974824;28;20113;-76
2021/12/04 06:30:46;;;;;;;3.17;2.22;;;20.00;50.50;;;;;;4941341;28;20495;-76
2021/12/04 06:33:15;;;;;;;3.15;2.17;;;20.00;50.50;;;;;;4974791;28;20058;-76
2021/12/04 06:35:41;;;;;;;2.38;1.85;;;20.00;50.60;;;;;;4957209;28;20030;-77
2021/12/04 06:38:09;;;;;;;2.60;1.73;;;20.00;50.50;;;;;;4957583;28;20508;-77
2021/12/04 06:40:35;;;;;;;2.40;1.70;;;20.00;50.60;;;;;;4974303;28;20031;-77
2021/12/04 06:43:03;;;;;;;3.42;1.85;;;20.00;50.50;;;;;;4974616;28;20108;-77
2021/12/04 06:45:32;;;;;;;2.88;2.03;;;20.00;50.50;;;;;;4974385;28;20029;-77
2021/12/04 06:48:04;;;;;;;2.75;1.92;;;20.00;50.50;;;;;;4957254;28;20026;-77
2021/12/04 06:53:05;;;;;;;3.42;1.90;;;20.00;50.50;;;;;;4974394;28;20061;-77
2021/12/04 06:55:38;;;;;;;3.22;1.63;;;20.00;50.50;;;;;;4974244;28;20035;-77
2021/12/04 06:58:04;;;;;;;3.53;1.77;;;20.00;50.50;;;;;;4974250;28;20030;-77
2021/12/04 07:00:30;;;;;;;2.33;1.50;;;20.00;50.40;;;;;;4974556;28;20031;-77
2021/12/04 07:02:56;;;;;;;2.92;1.80;;;20.10;50.50;;;;;;4956764;28;20373;-77
2021/12/04 07:05:22;;;;;;;3.13;1.90;;;20.00;50.50;;;;;;4956820;28;20034;-77
2021/12/04 07:07:48;;;;;;;3.00;1.90;;;20.00;50.40;;;;;;4956764;28;20054;-77
2021/12/04 07:10:14;;;;;;;3.17;1.88;;;20.00;50.50;;;;;;4974224;28;20505;-77
2021/12/04 07:12:39;;;;;;;3.00;1.90;;;20.10;50.50;;;;;;4956225;28;20049;-77
2021/12/04 07:15:07;;;;;;;2.67;1.80;;;20.10;50.50;;;;;;4973794;28;20480;-77
2021/12/04 07:17:35;;;;;;;3.75;2.08;;;20.00;50.30;;;;;;4956617;28;20086;-77
2021/12/04 07:20:05;;;;;;;3.10;2.03;;;20.00;51.10;;;;;;4973923;28;20037;-77
2021/12/04 07:22:31;;;;;;;;;;;20.00;50.50;;;;;;4974729;28;20027;-77
2021/12/04 07:24:57;;;;;;;3.47;1.98;;;20.00;50.40;;;;;;4956286;28;19917;-77
2021/12/04 07:27:23;;;;;;;2.78;1.70;;;20.00;50.50;;;;;;4924902;28;20096;-77
2021/12/04 07:29:49;;;;;;;3.08;1.80;;;20.00;50.50;;;;;;4956491;28;20506;-77
2021/12/04 07:32:15;;;;;;;3.10;2.00;;;20.00;50.50;;;;;;4973533;28;20101;-77
2021/12/04 07:34:41;;;;;;;2.70;2.00;;;20.00;50.40;;;;;;4956095;28;20101;-77
2021/12/04 07:37:07;;;;;;;3.50;1.80;;;20.00;50.50;;;;;;4973766;28;20512;-76
2021/12/04 07:39:33;;;;;;;3.38;2.00;;;20.00;50.40;;;;;;4973685;28;20027;-77
2021/12/04 07:41:58;;;;;;;2.38;1.60;;;20.00;50.40;;;;;;4973564;28;20054;-77
2021/12/04 07:44:24;;;;;;;2.45;1.77;;;20.10;50.40;;;;;;4973308;28;20027;-77
2021/12/04 07:46:50;;;;;;;3.20;1.80;;;20.00;50.50;;;;;;4973259;28;20073;-77
2021/12/04 07:49:16;;;;;;;2.60;1.70;;;20.00;50.50;;;;;;4973410;28;20035;-77
2021/12/04 07:51:43;;;;;;;3.25;1.73;;;20.00;50.50;;;;;;4972743;28;20038;-77
2021/12/04 07:54:09;;;;;;;3.55;1.80;;;20.00;50.50;;;;;;4973250;28;20031;-77
2021/12/04 07:56:35;;;;;;;2.35;1.80;;;20.00;50.40;;;;;;4973120;28;20037;-77
2021/12/04 07:59:01;;;;;;;2.15;1.77;;;20.00;50.40;;;;;;4973185;28;20027;-76
2021/12/04 08:01:27;;;;;;;3.55;1.90;;;20.00;50.50;;;;;;4973283;28;20023;-76
2021/12/04 08:03:53;;;;;;;3.05;1.90;;;20.00;50.40;;;;;;4973131;28;20109;-77
2021/12/04 08:06:19;;;;;;;2.95;1.85;;;20.00;50.50;;;;;;4955573;28;20475;-77
2021/12/04 08:08:44;;;;;;;2.90;1.73;;;20.00;50.40;;;;;;4972838;28;20031;-77
2021/12/04 08:11:10;;;;;;;2.28;1.80;;;20.00;50.30;;;;;;4972739;28;20038;-77
2021/12/04 08:13:36;;;;;;;3.00;1.88;;;20.00;50.40;;;;;;4955604;28;20514;-77
2021/12/04 08:16:02;;;;;;;2.90;1.83;;;20.00;50.30;;;;;;4972630;28;20023;-76
2021/12/04 08:18:28;;;;;;;2.67;1.90;;;20.00;50.40;;;;;;4955503;28;20499;-77
2021/12/04 08:20:54;;;;;;;3.05;1.70;;;20.10;50.40;;;;;;4973016;28;20114;-77
2021/12/04 08:23:20;;;;;;;2.65;1.80;;;20.10;50.40;;;;;;4955147;28;20110;-76
2021/12/04 08:25:47;;;;;;;2.65;1.80;;;20.00;50.90;;;;;;4955310;28;20498;-77
2021/12/04 08:28:13;;;;;;;2.67;1.85;;;20.10;50.40;;;;;;4972571;28;20395;-77
2021/12/04 08:30:40;;;;;;;3.40;1.88;;;20.00;50.40;;;;;;4972706;28;20037;-77
2021/12/04 08:33:10;;;;;;;3.42;2.08;;;20.00;50.40;;;;;;4972732;28;20139;-76
2021/12/04 08:35:39;;;;;;;2.63;1.73;;;20.00;50.30;;;;;;4972810;28;20034;-76
2021/12/04 08:38:09;;;;;;;3.60;2.05;;;20.00;50.50;;;;;;4972951;28;20395;-77
2021/12/04 08:40:37;;;;;;;2.83;1.85;;;20.00;51.20;;;;;;4972871;28;20058;-76
2021/12/04 08:43:04;;;;;;;2.80;1.77;;;20.00;50.40;;;;;;4972532;28;20061;-76
2021/12/04 08:45:29;;;;;;;3.03;1.90;;;20.00;50.40;;;;;;4955349;28;20063;-76
2021/12/04 08:47:55;;;;;;;2.45;1.73;;;20.00;50.50;;;;;;4955214;28;20051;-76
2021/12/04 08:50:25;;;;;;;3.03;1.73;;;20.00;50.40;;;;;;4939296;28;20407;-76
2021/12/04 08:52:52;;;;;;;3.70;1.85;;;20.00;50.40;;;;;;4955117;28;20055;-77
2021/12/04 08:55:18;;;;;;;2.63;1.70;;;20.00;50.30;;;;;;4954802;28;20038;-76
2021/12/04 08:57:44;;;;;;;3.70;1.83;;;20.00;50.40;;;;;;4955272;28;20022;-76
2021/12/04 09:00:18;;;;;;;2.55;1.83;;;20.00;50.40;;;;;;4955102;28;20058;-76
2021/12/04 09:02:45;;;;;;;3.33;1.88;;;20.00;50.40;;;;;;4955036;28;20039;-76
2021/12/04 09:05:12;;;;;;;3.38;1.88;;;20.00;50.50;;;;;;4938879;28;20737;-77
2021/12/04 09:07:38;;;;;;;2.55;1.85;;;20.00;50.50;;;;;;4955097;28;20043;-76
2021/12/04 09:10:04;;;;;;;2.45;1.58;;;20.00;50.50;;;;;;4954946;28;20046;-77
2021/12/04 09:12:33;;;;;;;3.15;1.98;;;20.00;50.40;;;;;;4938706;28;20031;-77
2021/12/04 09:15:00;;;;;;;3.20;1.90;;;20.00;50.50;;;;;;4954488;28;20023;-77
2021/12/04 09:17:26;;;;;;;3.10;1.80;;;20.00;50.30;;;;;;4955143;28;20027;-77
2021/12/04 09:19:51;;;;;;;3.45;1.90;;;20.00;50.40;;;;;;4972087;28;20073;-77
2021/12/04 09:22:25;;;;;;;2.97;1.80;;;20.00;50.50;;;;;;4972181;28;20503;-77
2021/12/04 09:24:56;;;;;;;2.75;1.80;;;20.00;50.40;;;;;;4971684;28;20035;-77
2021/12/04 09:30:14;;;;;;;2.22;1.50;;;20.00;50.40;;;;;;4972246;28;20046;-77
2021/12/04 09:35:18;;;;;;;3.22;1.83;;;20.00;50.40;;;;;;4972015;28;20034;-77
2021/12/04 10:00:09;;;;;;;3.22;1.80;;;20.00;50.50;;;;;;4975260;28;20027;-77
2021/12/04 10:02:44;;;;;;;2.55;1.85;;;20.00;50.40;;;;;;4958100;28;20495;-77
2021/12/04 10:05:24;;;;;;;3.63;2.00;;;20.00;50.50;;;;;;4957634;28;20034;-77
2021/12/04 10:16:35;;;;;;;3.28;1.88;;;20.00;50.50;;;;;;4974796;28;20031;-77
2021/12/04 10:19:32;;;;;;;2.67;1.88;;;20.00;50.50;;;;;;4975007;28;20031;-77
2021/12/04 10:22:15;;;;;;;3.10;2.03;;;20.00;50.50;;;;;;4974782;28;20054;-77
2021/12/04 10:24:59;;;;;;;3.67;1.88;;;20.00;50.50;;;;;;4959080;28;20034;-77
2021/12/04 10:33:18;;;;;;;2.58;1.70;;;20.00;50.50;;;;;;4974972;28;20403;-77
2021/12/04 10:35:46;;;;;;;2.90;2.00;;;20.00;50.40;;;;;;4974628;28;20435;-77
2021/12/04 10:38:24;;;;;;;2.72;1.95;;;20.00;50.40;;;;;;4974946;28;20101;-78
2021/12/04 10:40:52;;;;;;;2.45;1.67;;;20.00;50.40;;;;;;4957494;28;20038;-77
2021/12/04 10:43:28;;;;;;;2.20;1.67;;;20.00;50.50;;;;;;4957406;28;20035;-77
2021/12/04 10:46:00;;;;;;;3.33;1.98;;;20.00;50.40;;;;;;4974161;28;20031;-77
2021/12/04 10:48:30;;;;;;;2.72;2.08;;;20.00;50.40;;;;;;4957319;28;20038;-77
2021/12/04 10:53:51;;;;;;;3.20;1.92;;;20.00;50.40;;;;;;4974513;28;20090;-77
2021/12/04 10:57:00;;;;;;;2.70;1.77;;;20.00;50.50;;;;;;4973737;28;20038;-77
2021/12/04 10:59:40;;;;;;;3.00;1.92;;;20.00;50.50;;;;;;4974174;28;20101;-77
2021/12/04 11:05:27;;;;;;;2.95;1.95;;;20.00;50.40;;;;;;4935158;28;20428;-78
2021/12/04 11:19:24;;;;;;;3.05;2.17;;;20.00;50.40;;;;;;4974057;28;20054;-77
2021/12/04 11:22:06;;;;;;;3.05;1.90;;;20.00;50.40;;;;;;4974167;28;20027;-77
2021/12/04 11:37:57;;;;;;;2.75;1.98;;;20.00;50.40;;;;;;4973606;28;20484;-77
2021/12/04 11:40:52;;;;;;;2.65;1.90;;;20.00;50.50;;;;;;4973729;28;20026;-76
2021/12/04 11:43:23;;;;;;;3.38;2.25;;;20.00;50.50;;;;;;4973783;28;20019;-77
2021/12/04 11:48:31;;;;;;;2.20;1.73;;;20.00;50.50;;;;;;4940382;28;20066;-76
2021/12/04 11:50:58;;;;;;;2.92;2.00;;;20.00;50.50;;;;;;4956050;28;20113;-76
2021/12/04 11:53:25;;;;;;;3.55;2.10;;;20.00;50.50;;;;;;4956362;28;20038;-76
2021/12/04 11:55:52;;;;;;;3.38;2.17;;;20.00;50.50;;;;;;4973201;28;20050;-76
2021/12/04 11:58:28;;;;;;;2.42;1.80;;;20.00;50.40;;;;;;4972775;28;20105;-77
2021/12/04 12:00:58;;;;;;;3.47;2.08;;;20.00;50.50;;;;;;4955815;28;20034;-76
2021/12/04 12:03:28;;;;;;;2.20;1.85;;;20.00;50.50;;;;;;4955932;28;20054;-76
2021/12/04 12:06:00;;;;;;;2.38;1.77;;;20.00;50.50;;;;;;4972951;28;20399;-76
2021/12/04 12:08:31;;;;;;;2.47;1.85;;;20.00;50.50;;;;;;4955974;28;20035;-76
2021/12/04 12:11:04;;;;;;;2.63;2.05;;;20.00;50.50;;;;;;4956108;28;20043;-76
2021/12/04 12:13:34;;;;;;;2.58;1.70;;;20.00;50.40;;;;;;4922948;29;20524;-80
2021/12/04 12:16:10;;;;;;;2.33;1.92;;;20.00;50.40;;;;;;4925897;29;20055;-81
2021/12/04 12:18:50;;;;;;;3.08;2.10;;;20.00;50.30;;;;;;4915379;29;20046;-81
2021/12/04 12:21:20;;;;;;;2.40;1.70;;;20.00;50.30;;;;;;4916080;29;20028;-81
2021/12/04 12:24:34;;;;;;;2.33;1.90;;;20.00;50.30;;;;;;4916865;29;20115;-81
2021/12/04 12:27:33;;;;;;;3.50;2.20;;;20.00;50.40;;;;;;4897336;29;20119;-80
2021/12/04 12:36:03;;;;;;;2.92;1.92;;;20.00;50.40;;;;;;4915775;29;20154;-80
2021/12/04 12:38:31;;;;;;;4.70;1.83;;;20.00;50.40;;;;;;4916189;29;20098;-81
2021/12/04 12:41:05;;;;;;;1.90;1.70;;;20.00;50.40;;;;;;4898999;29;20036;-81
2021/12/04 12:43:46;;;;;;;2.65;1.95;;;20.00;50.50;;;;;;4916303;29;20497;-81
2021/12/04 12:46:13;;;;;;;2.90;1.70;;;20.00;50.40;;;;;;4915577;29;20497;-80
2021/12/04 12:48:57;;;;;;;3.38;2.10;;;20.00;50.40;;;;;;4914852;29;20080;-81
2021/12/04 12:51:34;;;;;;;3.08;1.88;;;20.00;50.30;;;;;;4915732;29;20028;-81
2021/12/04 12:54:05;;;;;;;2.40;1.88;;;20.00;50.40;;;;;;4916106;29;20493;-81
2021/12/04 12:56:33;;;;;;;3.28;2.08;;;20.00;50.40;;;;;;4914257;29;20035;-81
2021/12/04 12:59:06;;;;;;;3.25;1.95;;;20.00;50.40;;;;;;4899083;29;20035;-81
2021/12/04 13:13:25;;;;;;;4.22;2.00;;;20.00;50.30;;;;;;4918522;29;20036;-80
2021/12/04 13:15:52;;;;;;;;;;;20.00;50.40;;;;;;4919987;29;20025;-81
2021/12/04 13:18:23;;;;;;;2.72;1.90;;;20.00;50.40;;;;;;4919825;29;19911;-80
2021/12/04 13:20:52;;;;;;;2.35;1.77;;;20.00;50.40;;;;;;4918463;29;20134;-81
2021/12/04 13:23:21;;;;;;;3.38;2.05;;;19.90;50.40;;;;;;4919615;29;20295;-80
2021/12/04 13:25:55;;;;;;;;;;;19.90;50.40;;;;;;4918461;29;20079;-81
2021/12/04 13:28:24;;;;;;;3.00;2.08;;;20.00;50.40;;;;;;4902630;29;19911;-81
2021/12/04 13:30:50;;;;;;;3.25;2.03;;;20.00;50.30;;;;;;4902231;29;20389;-81
2021/12/04 13:33:17;;;;;;;2.58;2.05;;;19.90;50.30;;;;;;4902275;29;20032;-81
2021/12/04 13:35:46;;;;;;;2.92;2.03;;;19.90;50.40;;;;;;4902202;29;20383;-80
2021/12/04 13:38:15;;;;;;;2.42;1.80;;;19.90;50.30;;;;;;4917866;29;20035;-81
2021/12/04 13:40:43;;;;;;;3.30;2.13;;;20.00;50.40;;;;;;4918014;29;20446;-80
2021/12/04 13:43:11;;;;;;;2.97;2.17;;;19.90;50.30;;;;;;4919114;29;20024;-81
2021/12/04 13:45:38;;;;;;;3.40;2.05;;;20.00;50.30;;;;;;4917634;29;20024;-81
2021/12/04 13:48:04;;;;;;;3.03;2.10;;;20.00;50.30;;;;;;4918365;29;20024;-81
2021/12/04 13:53:21;;;;;;;2.85;2.15;;;20.00;50.40;;;;;;4917717;29;20064;-81
2021/12/04 13:55:52;;;;;;;2.85;2.00;;;20.00;50.40;;;;;;4918475;29;20039;-81
2021/12/04 13:58:19;;;;;;;2.95;1.90;;;20.00;50.30;;;;;;4917711;29;20102;-81
2021/12/04 14:00:45;;;;;;;3.08;2.03;;;20.00;50.30;;;;;;4902110;29;20054;-80
2021/12/04 14:03:12;;;;;;;2.83;2.08;;;20.00;50.20;;;;;;4901427;29;20079;-80
2021/12/04 14:05:38;;;;;;;3.00;1.98;;;20.00;50.30;;;;;;4918004;29;20123;-80
2021/12/04 14:08:05;;;;;;;2.67;2.00;;;20.00;50.30;;;;;;4901649;29;20489;-80
2021/12/04 14:10:40;;;;;;;3.63;2.33;;;20.00;50.20;;;;;;4886053;29;20469;-80
2021/12/04 14:13:06;;;;;;;3.33;2.33;;;20.00;50.30;;;;;;4918653;29;20522;-81
2021/12/04 14:15:34;;;;;;;5.57;2.15;;;20.00;50.30;;;;;;4918177;29;20397;-80
2021/12/04 14:18:06;;;;;;;3.35;2.15;;;20.00;50.30;;;;;;4918400;29;20088;-80
2021/12/04 14:20:33;;;;;;;3.38;2.30;;;20.00;50.30;;;;;;4901324;29;20028;-80
2021/12/04 14:23:00;;;;;;;3.13;2.10;;;20.00;50.30;;;;;;4916937;29;20098;-79
2021/12/04 14:25:27;;;;;;;3.13;2.22;;;20.00;50.20;;;;;;4917110;29;20036;-80
2021/12/04 14:27:55;;;;;;;3.08;2.30;;;19.90;50.20;;;;;;4917091;29;20028;-80
2021/12/04 14:30:25;;;;;;;3.30;2.22;;;19.90;50.20;;;;;;4918330;29;20513;-80
2021/12/04 14:32:55;;;;;;;3.67;2.30;;;19.90;50.20;;;;;;4917881;29;20024;-80
2021/12/04 14:35:44;;;;;;;3.90;2.47;;;19.90;50.10;;;;;;4917849;29;20202;-80
2021/12/04 14:38:16;;;;;;;3.25;2.38;;;20.00;50.30;;;;;;4918309;29;20025;-79
2021/12/04 14:40:51;;;;;;;3.50;2.40;;;20.00;50.30;;;;;;4901435;29;20047;-79
2021/12/04 14:43:22;;;;;;;3.33;2.50;;;20.00;50.20;;;;;;4916685;29;20038;-78
2021/12/04 14:45:51;;;;;;;3.53;2.35;;;20.00;50.30;;;;;;4917879;29;20054;-79
2021/12/04 14:48:20;;;;;;;2.65;2.20;;;20.00;50.30;;;;;;4918634;29;20473;-79
2021/12/04 14:50:49;;;;;;;3.88;2.35;;;20.00;50.30;;;;;;4918363;29;20058;-79
2021/12/04 14:53:18;;;;;;;3.47;2.45;;;19.90;50.20;;;;;;4917659;29;20024;-80
2021/12/04 14:55:49;;;;;;;3.55;2.33;;;19.90;50.20;;;;;;4917401;29;20054;-79
2021/12/04 14:58:22;;;;;;;3.88;2.42;;;19.90;50.20;;;;;;4900680;29;20111;-79
2021/12/04 15:00:50;;;;;;;3.67;2.42;;;19.90;50.30;;;;;;4917621;29;20032;-79
2021/12/04 15:03:29;;;;;;;3.35;2.38;;;19.90;50.20;;;;;;4917433;29;20035;-79
2021/12/04 15:05:58;;;;;;;3.03;2.37;;;19.90;50.30;;;;;;4917287;29;20189;-78
2021/12/04 15:08:30;;;;;;;3.15;2.40;;;19.90;50.30;;;;;;4916205;29;20036;-79
2021/12/04 15:11:11;;;;;;;3.50;2.45;;;19.90;50.40;;;;;;4917507;29;20055;-78
2021/12/04 15:13:51;;;;;;;3.28;2.20;;;19.90;50.30;;;;;;4916327;29;20044;-79
2021/12/04 15:16:19;;;;;;;;;;;19.90;50.30;;;;;;4917213;29;20107;-79
2021/12/04 15:18:45;;;;;;;3.83;2.60;;;19.90;50.30;;;;;;4917282;29;19942;-80
2021/12/04 15:21:15;;;;;;;6.15;2.78;;;19.90;50.30;;;;;;4918601;29;20032;-80
2021/12/04 15:23:45;;;;;;;;;;;19.90;50.30;;;;;;4924220;29;20032;-80
2021/12/04 15:26:18;;;;;;;4.28;2.50;;;19.90;50.30;;;;;;4908862;29;19918;-79
2021/12/04 15:28:49;;;;;;;3.78;2.70;;;19.90;50.30;;;;;;4915105;29;20035;-80
2021/12/04 15:31:18;;;;;;;4.07;2.55;;;19.90;50.20;;;;;;4935089;29;20044;-80
2021/12/04 15:33:48;;;;;;;4.00;2.63;;;19.90;50.10;;;;;;4937246;29;20043;-80
2021/12/04 15:36:36;;;;;;;6.68;2.90;;;19.90;50.20;;;;;;4937321;29;20028;-79
2021/12/04 15:39:10;;;;;;;3.80;2.60;;;19.90;50.20;;;;;;4928547;29;20032;-80
2021/12/04 15:41:55;;;;;;;3.97;2.70;;;19.90;50.20;;;;;;4915458;29;20036;-81
2021/12/04 15:44:41;;;;;;;4.13;2.60;;;19.90;50.10;;;;;;4929051;29;20032;-81